Current Conditions
Scattered
Clouds



Pressure
1026.92 (hPa) - 30.32 (inHG)
Visibility

10.0 (km) - 6.2 (miles)
   Temperature
6  °C
Temperature
-1  °C
Dewpoint
61  %
 Humidity
   Wind Speed
29  km/h
16  kts
18  mph
8.0  m/s
   Wind Direction
N
45°
E
90°
135°
S
180°
225°
W
270°
315°
 210°

South South
West
   Airport Data
LTBA
Istanbul Atatürk Airport
Metar :LTBA 201920Z 21016KT 9999 SCT033 BKN090 06/M01 Q1027 NOSIG RMK RWY23 21017KT
Wed 20th January 22:20 pm
   Raw Metar Info
Raw METAR is the most common format in the world for the transmission of observational weather data. It is highly standardized through the International Civil Aviation Organization (ICAO), which allows it to be understood throughout most of the world.
   API Info
Data Provided by
https://www.checkwx.com/weather/

Aviation Weather providing METAR, TAF, AIRMET, SIGMET and OUTLOOK Weather Reports
   © Info
CSS/SVG/PHP scripts were developed by weather34.com for use in the weather34 template © 2015-2021

Guide Info provided by Metar-Wikipedia